sensor_id;sensor_type;location;lat;lon;timestamp;temperature;humidity
35127;DHT22;21300;52.006;5.798;2024-01-25T00:01:08;6.00;99.90
35127;DHT22;21300;52.006;5.798;2024-01-25T00:03:34;6.00;99.90
35127;DHT22;21300;52.006;5.798;2024-01-25T00:05:59;5.70;99.90
35127;DHT22;21300;52.006;5.798;2024-01-25T00:08:25;5.50;99.90
35127;DHT22;21300;52.006;5.798;2024-01-25T00:10:51;5.50;99.90
35127;DHT22;21300;52.006;5.798;2024-01-25T00:13:17;5.50;99.90
35127;DHT22;21300;52.006;5.798;2024-01-25T00:15:42;5.40;99.90
35127;DHT22;21300;52.006;5.798;2024-01-25T00:18:08;5.50;99.90
35127;DHT22;21300;52.006;5.798;2024-01-25T00:20:36;5.50;99.90
35127;DHT22;21300;52.006;5.798;2024-01-25T00:23:02;5.40;99.90
35127;DHT22;21300;52.006;5.798;2024-01-25T00:25:28;5.20;99.90
35127;DHT22;21300;52.006;5.798;2024-01-25T00:27:53;5.10;99.90
35127;DHT22;21300;52.006;5.798;2024-01-25T00:30:19;5.10;99.90
35127;DHT22;21300;52.006;5.798;2024-01-25T00:32:45;5.10;99.90
35127;DHT22;21300;52.006;5.798;2024-01-25T00:35:11;5.00;99.90
35127;DHT22;21300;52.006;5.798;2024-01-25T00:37:40;4.90;99.90
35127;DHT22;21300;52.006;5.798;2024-01-25T00:40:06;5.30;99.90
35127;DHT22;21300;52.006;5.798;2024-01-25T00:42:45;5.30;99.90
35127;DHT22;21300;52.006;5.798;2024-01-25T00:45:14;5.30;99.90
35127;DHT22;21300;52.006;5.798;2024-01-25T00:47:40;5.10;99.90
35127;DHT22;21300;52.006;5.798;2024-01-25T00:50:06;5.10;99.90
35127;DHT22;21300;52.006;5.798;2024-01-25T00:52:32;4.90;99.90
35127;DHT22;21300;52.006;5.798;2024-01-25T00:54:58;4.90;99.90
35127;DHT22;21300;52.006;5.798;2024-01-25T00:57:24;4.90;99.90
35127;DHT22;21300;52.006;5.798;2024-01-25T00:59:49;4.90;99.90
35127;DHT22;21300;52.006;5.798;2024-01-25T01:02:15;4.80;99.90
35127;DHT22;21300;52.006;5.798;2024-01-25T01:04:41;4.80;99.90
35127;DHT22;21300;52.006;5.798;2024-01-25T01:07:07;5.00;99.90
35127;DHT22;21300;52.006;5.798;2024-01-25T01:09:34;4.90;99.90
35127;DHT22;21300;52.006;5.798;2024-01-25T01:12:00;5.20;99.90
35127;DHT22;21300;52.006;5.798;2024-01-25T01:14:25;5.10;99.90
35127;DHT22;21300;52.006;5.798;2024-01-25T01:16:51;4.90;99.90
35127;DHT22;21300;52.006;5.798;2024-01-25T01:19:17;4.80;99.90
35127;DHT22;21300;52.006;5.798;2024-01-25T01:21:43;4.60;99.90
35127;DHT22;21300;52.006;5.798;2024-01-25T01:24:12;4.70;99.90
35127;DHT22;21300;52.006;5.798;2024-01-25T01:26:38;4.80;99.90
35127;DHT22;21300;52.006;5.798;2024-01-25T01:29:04;4.80;99.90
35127;DHT22;21300;52.006;5.798;2024-01-25T01:31:30;4.80;99.90
35127;DHT22;21300;52.006;5.798;2024-01-25T01:33:56;4.60;99.90
35127;DHT22;21300;52.006;5.798;2024-01-25T01:36:23;4.50;99.90
35127;DHT22;21300;52.006;5.798;2024-01-25T01:38:49;4.40;99.90
35127;DHT22;21300;52.006;5.798;2024-01-25T01:41:14;4.30;99.90
35127;DHT22;21300;52.006;5.798;2024-01-25T01:43:41;4.20;99.90
35127;DHT22;21300;52.006;5.798;2024-01-25T01:46:17;4.00;99.90
35127;DHT22;21300;52.006;5.798;2024-01-25T01:48:46;3.80;99.90
35127;DHT22;21300;52.006;5.798;2024-01-25T01:51:12;3.60;99.90
35127;DHT22;21300;52.006;5.798;2024-01-25T01:53:37;3.30;99.90
35127;DHT22;21300;52.006;5.798;2024-01-25T01:56:03;3.20;99.90
35127;DHT22;21300;52.006;5.798;2024-01-25T01:58:30;3.10;99.90
35127;DHT22;21300;52.006;5.798;2024-01-25T02:00:59;3.00;99.90
35127;DHT22;21300;52.006;5.798;2024-01-25T02:03:25;2.90;99.90
35127;DHT22;21300;52.006;5.798;2024-01-25T02:05:50;2.90;99.90
35127;DHT22;21300;52.006;5.798;2024-01-25T02:08:16;2.80;99.90
35127;DHT22;21300;52.006;5.798;2024-01-25T02:10:42;2.70;99.90
35127;DHT22;21300;52.006;5.798;2024-01-25T02:13:08;2.70;99.90
35127;DHT22;21300;52.006;5.798;2024-01-25T02:15:37;2.70;99.90
35127;DHT22;21300;52.006;5.798;2024-01-25T02:18:03;2.60;99.90
35127;DHT22;21300;52.006;5.798;2024-01-25T02:20:28;2.60;99.90
35127;DHT22;21300;52.006;5.798;2024-01-25T02:22:54;2.50;99.90
35127;DHT22;21300;52.006;5.798;2024-01-25T02:25:19;2.40;99.90
35127;DHT22;21300;52.006;5.798;2024-01-25T02:27:45;2.30;99.90
35127;DHT22;21300;52.006;5.798;2024-01-25T02:30:11;2.20;99.90
35127;DHT22;21300;52.006;5.798;2024-01-25T02:32:36;2.30;99.90
35127;DHT22;21300;52.006;5.798;2024-01-25T02:35:02;2.50;99.90
35127;DHT22;21300;52.006;5.798;2024-01-25T02:37:28;2.50;99.90
35127;DHT22;21300;52.006;5.798;2024-01-25T02:39:54;2.40;99.90
35127;DHT22;21300;52.006;5.798;2024-01-25T02:42:19;2.50;99.90
35127;DHT22;21300;52.006;5.798;2024-01-25T02:44:45;2.70;99.90
35127;DHT22;21300;52.006;5.798;2024-01-25T02:47:10;2.60;99.90
35127;DHT22;21300;52.006;5.798;2024-01-25T02:49:36;2.60;99.90
35127;DHT22;21300;52.006;5.798;2024-01-25T02:52:02;2.60;99.90
35127;DHT22;21300;52.006;5.798;2024-01-25T02:54:27;2.60;99.90
35127;DHT22;21300;52.006;5.798;2024-01-25T02:56:53;2.50;99.90
35127;DHT22;21300;52.006;5.798;2024-01-25T02:59:19;2.60;99.90
35127;DHT22;21300;52.006;5.798;2024-01-25T03:01:46;2.60;99.90
35127;DHT22;21300;52.006;5.798;2024-01-25T03:04:12;2.60;99.90
35127;DHT22;21300;52.006;5.798;2024-01-25T03:06:37;2.40;99.90
35127;DHT22;21300;52.006;5.798;2024-01-25T03:09:03;2.30;99.90
35127;DHT22;21300;52.006;5.798;2024-01-25T03:11:32;2.30;99.90
35127;DHT22;21300;52.006;5.798;2024-01-25T03:13:58;2.10;99.90
35127;DHT22;21300;52.006;5.798;2024-01-25T03:16:23;2.00;99.90
35127;DHT22;21300;52.006;5.798;2024-01-25T03:18:49;1.90;99.90
35127;DHT22;21300;52.006;5.798;2024-01-25T03:21:15;1.70;99.90
35127;DHT22;21300;52.006;5.798;2024-01-25T03:23:40;1.60;99.90
35127;DHT22;21300;52.006;5.798;2024-01-25T03:26:06;1.50;99.90
35127;DHT22;21300;52.006;5.798;2024-01-25T03:28:34;1.50;99.90
35127;DHT22;21300;52.006;5.798;2024-01-25T03:31:01;1.70;99.90
35127;DHT22;21300;52.006;5.798;2024-01-25T03:33:26;1.80;99.90
35127;DHT22;21300;52.006;5.798;2024-01-25T03:35:53;2.00;99.90
35127;DHT22;21300;52.006;5.798;2024-01-25T03:38:19;1.90;99.90
35127;DHT22;21300;52.006;5.798;2024-01-25T03:40:45;1.90;99.90
35127;DHT22;21300;52.006;5.798;2024-01-25T03:43:10;2.10;99.90
35127;DHT22;21300;52.006;5.798;2024-01-25T03:45:39;2.00;99.90
35127;DHT22;21300;52.006;5.798;2024-01-25T03:48:05;1.90;99.90
35127;DHT22;21300;52.006;5.798;2024-01-25T03:50:31;1.90;99.90
35127;DHT22;21300;52.006;5.798;2024-01-25T03:52:56;1.80;99.90
35127;DHT22;21300;52.006;5.798;2024-01-25T03:55:22;1.90;99.90
35127;DHT22;21300;52.006;5.798;2024-01-25T03:57:48;1.90;99.90
35127;DHT22;21300;52.006;5.798;2024-01-25T04:00:14;1.80;99.90
35127;DHT22;21300;52.006;5.798;2024-01-25T04:02:39;1.70;99.90
35127;DHT22;21300;52.006;5.798;2024-01-25T04:05:05;1.50;99.90
35127;DHT22;21300;52.006;5.798;2024-01-25T04:07:31;1.60;99.90
35127;DHT22;21300;52.006;5.798;2024-01-25T04:09:56;1.60;99.90
35127;DHT22;21300;52.006;5.798;2024-01-25T04:12:22;1.60;99.90
35127;DHT22;21300;52.006;5.798;2024-01-25T04:14:49;1.60;99.90
35127;DHT22;21300;52.006;5.798;2024-01-25T04:17:15;1.40;99.90
35127;DHT22;21300;52.006;5.798;2024-01-25T04:19:40;1.30;99.90
35127;DHT22;21300;52.006;5.798;2024-01-25T04:22:06;1.20;99.90
35127;DHT22;21300;52.006;5.798;2024-01-25T04:24:32;1.10;99.90
35127;DHT22;21300;52.006;5.798;2024-01-25T04:26:57;1.10;99.90
35127;DHT22;21300;52.006;5.798;2024-01-25T04:29:23;1.00;99.90
35127;DHT22;21300;52.006;5.798;2024-01-25T04:31:48;0.90;99.90
35127;DHT22;21300;52.006;5.798;2024-01-25T04:34:15;0.70;99.90
35127;DHT22;21300;52.006;5.798;2024-01-25T04:36:41;0.80;99.90
35127;DHT22;21300;52.006;5.798;2024-01-25T04:39:06;0.70;99.90
35127;DHT22;21300;52.006;5.798;2024-01-25T04:41:32;0.60;99.90
35127;DHT22;21300;52.006;5.798;2024-01-25T04:43:58;0.60;99.90
35127;DHT22;21300;52.006;5.798;2024-01-25T04:46:23;0.60;99.90
35127;DHT22;21300;52.006;5.798;2024-01-25T04:48:49;0.60;99.90
35127;DHT22;21300;52.006;5.798;2024-01-25T04:51:19;0.60;99.90
35127;DHT22;21300;52.006;5.798;2024-01-25T04:53:47;0.50;99.90
35127;DHT22;21300;52.006;5.798;2024-01-25T04:56:13;0.50;99.90
35127;DHT22;21300;52.006;5.798;2024-01-25T04:58:39;0.50;99.90
35127;DHT22;21300;52.006;5.798;2024-01-25T05:01:05;0.50;99.90
35127;DHT22;21300;52.006;5.798;2024-01-25T05:03:32;0.40;99.90
35127;DHT22;21300;52.006;5.798;2024-01-25T05:05:58;0.30;99.90
35127;DHT22;21300;52.006;5.798;2024-01-25T05:08:24;0.30;99.90
35127;DHT22;21300;52.006;5.798;2024-01-25T05:10:49;0.30;99.90
35127;DHT22;21300;52.006;5.798;2024-01-25T05:13:15;0.30;99.90
35127;DHT22;21300;52.006;5.798;2024-01-25T05:15:41;0.30;99.90
35127;DHT22;21300;52.006;5.798;2024-01-25T05:18:11;0.20;99.90
35127;DHT22;21300;52.006;5.798;2024-01-25T05:20:37;0.20;99.90
35127;DHT22;21300;52.006;5.798;2024-01-25T05:23:04;0.30;99.90
35127;DHT22;21300;52.006;5.798;2024-01-25T05:25:30;0.30;99.90
35127;DHT22;21300;52.006;5.798;2024-01-25T05:27:56;0.20;99.90
35127;DHT22;21300;52.006;5.798;2024-01-25T05:30:23;0.30;99.90
35127;DHT22;21300;52.006;5.798;2024-01-25T05:32:49;0.30;99.90
35127;DHT22;21300;52.006;5.798;2024-01-25T05:35:17;0.20;99.90
35127;DHT22;21300;52.006;5.798;2024-01-25T05:37:43;0.30;99.90
35127;DHT22;21300;52.006;5.798;2024-01-25T05:40:09;0.10;99.90
35127;DHT22;21300;52.006;5.798;2024-01-25T05:42:35;0.00;99.90
35127;DHT22;21300;52.006;5.798;2024-01-25T05:45:02;0.00;99.90
35127;DHT22;21300;52.006;5.798;2024-01-25T05:47:29;0.10;99.90
35127;DHT22;21300;52.006;5.798;2024-01-25T05:49:54;0.20;99.90
35127;DHT22;21300;52.006;5.798;2024-01-25T05:52:20;0.10;99.90
35127;DHT22;21300;52.006;5.798;2024-01-25T05:54:47;0.00;99.90
35127;DHT22;21300;52.006;5.798;2024-01-25T05:57:13;-0.10;99.90
35127;DHT22;21300;52.006;5.798;2024-01-25T05:59:40;-0.20;99.90
35127;DHT22;21300;52.006;5.798;2024-01-25T06:02:05;-0.30;99.90
35127;DHT22;21300;52.006;5.798;2024-01-25T06:04:31;-0.30;99.90
35127;DHT22;21300;52.006;5.798;2024-01-25T06:06:57;-0.20;99.90
35127;DHT22;21300;52.006;5.798;2024-01-25T06:09:23;-0.30;99.90
35127;DHT22;21300;52.006;5.798;2024-01-25T06:11:50;-0.20;99.90
35127;DHT22;21300;52.006;5.798;2024-01-25T06:14:16;-0.10;99.90
35127;DHT22;21300;52.006;5.798;2024-01-25T06:16:42;0.10;99.90
35127;DHT22;21300;52.006;5.798;2024-01-25T06:19:08;0.30;99.90
35127;DHT22;21300;52.006;5.798;2024-01-25T06:21:34;0.70;99.90
35127;DHT22;21300;52.006;5.798;2024-01-25T06:24:02;0.90;99.90
35127;DHT22;21300;52.006;5.798;2024-01-25T06:26:27;0.80;99.90
35127;DHT22;21300;52.006;5.798;2024-01-25T06:28:53;0.70;99.90
35127;DHT22;21300;52.006;5.798;2024-01-25T06:31:19;0.50;99.90
35127;DHT22;21300;52.006;5.798;2024-01-25T06:33:44;0.40;99.90
35127;DHT22;21300;52.006;5.798;2024-01-25T06:36:12;0.30;99.90
35127;DHT22;21300;52.006;5.798;2024-01-25T06:38:41;0.30;99.90
35127;DHT22;21300;52.006;5.798;2024-01-25T06:41:08;0.10;99.90
35127;DHT22;21300;52.006;5.798;2024-01-25T06:43:33;-0.10;99.90
35127;DHT22;21300;52.006;5.798;2024-01-25T06:45:59;-0.10;99.90
35127;DHT22;21300;52.006;5.798;2024-01-25T06:48:24;-0.20;99.90
35127;DHT22;21300;52.006;5.798;2024-01-25T06:50:50;-0.30;99.90
35127;DHT22;21300;52.006;5.798;2024-01-25T06:53:16;-0.30;99.90
35127;DHT22;21300;52.006;5.798;2024-01-25T06:55:42;-0.40;99.90
35127;DHT22;21300;52.006;5.798;2024-01-25T06:58:08;-0.40;99.90
35127;DHT22;21300;52.006;5.798;2024-01-25T07:00:41;-0.40;99.90
35127;DHT22;21300;52.006;5.798;2024-01-25T07:03:08;-0.30;99.90
35127;DHT22;21300;52.006;5.798;2024-01-25T07:05:34;-0.30;99.90
35127;DHT22;21300;52.006;5.798;2024-01-25T07:08:01;-0.10;99.90
35127;DHT22;21300;52.006;5.798;2024-01-25T07:10:27;-0.20;99.90
35127;DHT22;21300;52.006;5.798;2024-01-25T07:12:53;-0.10;99.90
35127;DHT22;21300;52.006;5.798;2024-01-25T07:15:19;-0.30;99.90
35127;DHT22;21300;52.006;5.798;2024-01-25T07:17:47;-0.30;99.90
35127;DHT22;21300;52.006;5.798;2024-01-25T07:20:13;-0.20;99.90
35127;DHT22;21300;52.006;5.798;2024-01-25T07:22:40;-0.10;99.90
35127;DHT22;21300;52.006;5.798;2024-01-25T07:25:06;-0.10;99.90
35127;DHT22;21300;52.006;5.798;2024-01-25T07:27:32;0.00;99.90
35127;DHT22;21300;52.006;5.798;2024-01-25T07:29:58;0.00;99.90
35127;DHT22;21300;52.006;5.798;2024-01-25T07:32:23;0.00;99.90
35127;DHT22;21300;52.006;5.798;2024-01-25T07:34:52;-0.10;99.90
35127;DHT22;21300;52.006;5.798;2024-01-25T07:37:19;-0.20;99.90
35127;DHT22;21300;52.006;5.798;2024-01-25T07:39:45;-0.10;99.90
35127;DHT22;21300;52.006;5.798;2024-01-25T07:42:11;-0.10;99.90
35127;DHT22;21300;52.006;5.798;2024-01-25T07:44:38;0.00;99.90
35127;DHT22;21300;52.006;5.798;2024-01-25T07:47:03;0.20;99.90
35127;DHT22;21300;52.006;5.798;2024-01-25T07:49:29;0.20;99.90
35127;DHT22;21300;52.006;5.798;2024-01-25T07:51:55;0.20;99.90
35127;DHT22;21300;52.006;5.798;2024-01-25T07:54:24;0.40;99.90
35127;DHT22;21300;52.006;5.798;2024-01-25T07:56:50;0.40;99.90
35127;DHT22;21300;52.006;5.798;2024-01-25T07:59:15;0.60;99.90
35127;DHT22;21300;52.006;5.798;2024-01-25T08:01:42;0.60;99.90
35127;DHT22;21300;52.006;5.798;2024-01-25T08:04:07;0.70;99.90
35127;DHT22;21300;52.006;5.798;2024-01-25T08:06:33;0.80;99.90
35127;DHT22;21300;52.006;5.798;2024-01-25T08:08:58;0.80;99.90
35127;DHT22;21300;52.006;5.798;2024-01-25T08:11:25;0.90;99.90
35127;DHT22;21300;52.006;5.798;2024-01-25T08:13:50;0.90;99.90
35127;DHT22;21300;52.006;5.798;2024-01-25T08:16:16;0.90;99.90
35127;DHT22;21300;52.006;5.798;2024-01-25T08:18:49;0.80;99.90
35127;DHT22;21300;52.006;5.798;2024-01-25T08:21:14;0.80;99.90
35127;DHT22;21300;52.006;5.798;2024-01-25T08:23:40;0.70;99.90
35127;DHT22;21300;52.006;5.798;2024-01-25T08:26:06;0.80;99.90
35127;DHT22;21300;52.006;5.798;2024-01-25T08:28:44;1.00;99.90
35127;DHT22;21300;52.006;5.798;2024-01-25T08:31:10;1.20;99.90
35127;DHT22;21300;52.006;5.798;2024-01-25T08:33:35;1.40;99.90
35127;DHT22;21300;52.006;5.798;2024-01-25T08:36:01;1.50;99.90
35127;DHT22;21300;52.006;5.798;2024-01-25T08:38:27;1.60;99.90
35127;DHT22;21300;52.006;5.798;2024-01-25T08:40:53;1.70;99.90
35127;DHT22;21300;52.006;5.798;2024-01-25T08:43:18;1.80;99.90
35127;DHT22;21300;52.006;5.798;2024-01-25T08:45:44;1.80;99.90
35127;DHT22;21300;52.006;5.798;2024-01-25T08:48:10;1.90;99.90
35127;DHT22;21300;52.006;5.798;2024-01-25T08:50:36;1.90;99.90
35127;DHT22;21300;52.006;5.798;2024-01-25T08:53:02;1.90;99.90
35127;DHT22;21300;52.006;5.798;2024-01-25T08:55:27;2.10;99.90
35127;DHT22;21300;52.006;5.798;2024-01-25T08:57:53;2.40;99.90
35127;DHT22;21300;52.006;5.798;2024-01-25T09:00:19;2.50;99.90
35127;DHT22;21300;52.006;5.798;2024-01-25T09:02:44;2.60;99.90
35127;DHT22;21300;52.006;5.798;2024-01-25T09:05:11;2.80;99.90
35127;DHT22;21300;52.006;5.798;2024-01-25T09:07:37;3.00;99.90
35127;DHT22;21300;52.006;5.798;2024-01-25T09:10:03;3.00;99.90
35127;DHT22;21300;52.006;5.798;2024-01-25T09:12:30;3.10;99.90
35127;DHT22;21300;52.006;5.798;2024-01-25T09:14:55;3.20;99.90
35127;DHT22;21300;52.006;5.798;2024-01-25T09:17:21;3.30;99.90
35127;DHT22;21300;52.006;5.798;2024-01-25T09:19:50;3.40;99.90
35127;DHT22;21300;52.006;5.798;2024-01-25T09:22:19;3.50;99.90
35127;DHT22;21300;52.006;5.798;2024-01-25T09:24:46;3.60;99.90
35127;DHT22;21300;52.006;5.798;2024-01-25T09:27:12;3.70;99.90
35127;DHT22;21300;52.006;5.798;2024-01-25T09:29:39;3.80;99.90
35127;DHT22;21300;52.006;5.798;2024-01-25T09:32:06;3.90;99.90
35127;DHT22;21300;52.006;5.798;2024-01-25T09:34:32;3.90;99.90
35127;DHT22;21300;52.006;5.798;2024-01-25T09:36:58;4.00;99.90
35127;DHT22;21300;52.006;5.798;2024-01-25T09:39:24;4.10;99.90
35127;DHT22;21300;52.006;5.798;2024-01-25T09:41:49;4.20;99.90
35127;DHT22;21300;52.006;5.798;2024-01-25T09:44:15;4.30;99.90
35127;DHT22;21300;52.006;5.798;2024-01-25T09:46:43;4.40;99.90
35127;DHT22;21300;52.006;5.798;2024-01-25T09:49:10;4.50;99.90
35127;DHT22;21300;52.006;5.798;2024-01-25T09:51:40;4.50;99.90
35127;DHT22;21300;52.006;5.798;2024-01-25T09:54:07;4.60;99.90
35127;DHT22;21300;52.006;5.798;2024-01-25T09:56:33;4.70;99.90
35127;DHT22;21300;52.006;5.798;2024-01-25T09:58:59;4.70;99.90
35127;DHT22;21300;52.006;5.798;2024-01-25T10:01:26;4.90;99.90
35127;DHT22;21300;52.006;5.798;2024-01-25T10:03:52;5.10;99.90
35127;DHT22;21300;52.006;5.798;2024-01-25T10:06:21;5.20;99.90
35127;DHT22;21300;52.006;5.798;2024-01-25T10:08:47;5.20;99.90
35127;DHT22;21300;52.006;5.798;2024-01-25T10:11:12;5.30;99.90
35127;DHT22;21300;52.006;5.798;2024-01-25T10:13:45;5.30;99.90
35127;DHT22;21300;52.006;5.798;2024-01-25T10:16:15;5.30;99.90
35127;DHT22;21300;52.006;5.798;2024-01-25T10:18:43;5.40;99.90
35127;DHT22;21300;52.006;5.798;2024-01-25T10:21:13;5.50;99.90
35127;DHT22;21300;52.006;5.798;2024-01-25T10:23:39;5.50;99.90
35127;DHT22;21300;52.006;5.798;2024-01-25T10:26:05;5.70;99.90
35127;DHT22;21300;52.006;5.798;2024-01-25T10:28:31;5.70;99.90
35127;DHT22;21300;52.006;5.798;2024-01-25T10:31:00;5.70;99.90
35127;DHT22;21300;52.006;5.798;2024-01-25T10:33:27;5.80;99.90
35127;DHT22;21300;52.006;5.798;2024-01-25T10:35:54;5.80;99.90
35127;DHT22;21300;52.006;5.798;2024-01-25T10:38:21;5.90;99.90
35127;DHT22;21300;52.006;5.798;2024-01-25T10:40:47;6.00;99.90
35127;DHT22;21300;52.006;5.798;2024-01-25T10:43:13;6.10;99.90
35127;DHT22;21300;52.006;5.798;2024-01-25T10:45:39;6.20;99.90
35127;DHT22;21300;52.006;5.798;2024-01-25T10:48:06;6.30;99.90
35127;DHT22;21300;52.006;5.798;2024-01-25T10:50:32;6.40;99.90
35127;DHT22;21300;52.006;5.798;2024-01-25T10:52:58;6.50;99.90
35127;DHT22;21300;52.006;5.798;2024-01-25T10:55:25;6.60;99.90
35127;DHT22;21300;52.006;5.798;2024-01-25T10:57:52;6.60;99.90
35127;DHT22;21300;52.006;5.798;2024-01-25T11:00:18;6.70;99.90
35127;DHT22;21300;52.006;5.798;2024-01-25T11:02:46;6.70;99.90
35127;DHT22;21300;52.006;5.798;2024-01-25T11:05:16;6.70;99.90
35127;DHT22;21300;52.006;5.798;2024-01-25T11:07:47;6.70;99.90
35127;DHT22;21300;52.006;5.798;2024-01-25T11:10:35;6.70;99.90
35127;DHT22;21300;52.006;5.798;2024-01-25T11:13:01;6.90;99.90
35127;DHT22;21300;52.006;5.798;2024-01-25T11:15:36;7.10;99.90
35127;DHT22;21300;52.006;5.798;2024-01-25T11:18:03;7.10;99.90
35127;DHT22;21300;52.006;5.798;2024-01-25T11:20:33;7.10;99.90
35127;DHT22;21300;52.006;5.798;2024-01-25T11:22:59;7.10;99.90
35127;DHT22;21300;52.006;5.798;2024-01-25T11:27:55;7.10;99.90
35127;DHT22;21300;52.006;5.798;2024-01-25T11:30:20;7.20;99.90
35127;DHT22;21300;52.006;5.798;2024-01-25T11:32:47;7.20;99.90
35127;DHT22;21300;52.006;5.798;2024-01-25T11:35:13;7.40;99.90
35127;DHT22;21300;52.006;5.798;2024-01-25T11:37:45;7.40;99.90
35127;DHT22;21300;52.006;5.798;2024-01-25T11:40:12;7.50;99.90
35127;DHT22;21300;52.006;5.798;2024-01-25T11:42:39;7.50;99.90
35127;DHT22;21300;52.006;5.798;2024-01-25T11:45:08;7.70;99.90
35127;DHT22;21300;52.006;5.798;2024-01-25T11:47:35;7.70;99.90
35127;DHT22;21300;52.006;5.798;2024-01-25T11:50:02;7.60;99.90
35127;DHT22;21300;52.006;5.798;2024-01-25T11:52:28;7.60;99.90
35127;DHT22;21300;52.006;5.798;2024-01-25T11:54:58;7.50;99.90
35127;DHT22;21300;52.006;5.798;2024-01-25T11:57:24;7.50;99.90
35127;DHT22;21300;52.006;5.798;2024-01-25T11:59:50;7.50;99.90
35127;DHT22;21300;52.006;5.798;2024-01-25T12:02:16;7.60;99.90
35127;DHT22;21300;52.006;5.798;2024-01-25T12:04:42;7.60;99.90
35127;DHT22;21300;52.006;5.798;2024-01-25T12:07:07;7.60;99.90
35127;DHT22;21300;52.006;5.798;2024-01-25T12:09:33;7.70;99.90
35127;DHT22;21300;52.006;5.798;2024-01-25T12:12:00;7.70;99.90
35127;DHT22;21300;52.006;5.798;2024-01-25T12:14:27;7.80;99.90
35127;DHT22;21300;52.006;5.798;2024-01-25T12:16:55;7.90;99.90
35127;DHT22;21300;52.006;5.798;2024-01-25T12:19:21;7.80;99.90
35127;DHT22;21300;52.006;5.798;2024-01-25T12:21:47;7.70;99.90
35127;DHT22;21300;52.006;5.798;2024-01-25T12:24:12;7.70;99.90
35127;DHT22;21300;52.006;5.798;2024-01-25T12:26:38;7.70;99.90
35127;DHT22;21300;52.006;5.798;2024-01-25T12:29:04;7.70;99.90
35127;DHT22;21300;52.006;5.798;2024-01-25T12:31:30;7.70;99.90
35127;DHT22;21300;52.006;5.798;2024-01-25T12:33:56;7.70;99.90
35127;DHT22;21300;52.006;5.798;2024-01-25T12:36:23;7.70;99.90
35127;DHT22;21300;52.006;5.798;2024-01-25T12:38:48;7.50;99.90
35127;DHT22;21300;52.006;5.798;2024-01-25T12:41:14;7.50;99.90
35127;DHT22;21300;52.006;5.798;2024-01-25T12:46:25;7.80;99.90
35127;DHT22;21300;52.006;5.798;2024-01-25T12:48:50;8.20;99.90
35127;DHT22;21300;52.006;5.798;2024-01-25T12:51:23;8.40;99.90
35127;DHT22;21300;52.006;5.798;2024-01-25T12:53:49;8.40;99.90
35127;DHT22;21300;52.006;5.798;2024-01-25T12:56:15;8.40;99.90
35127;DHT22;21300;52.006;5.798;2024-01-25T12:58:41;8.40;99.90
35127;DHT22;21300;52.006;5.798;2024-01-25T13:01:08;8.40;99.90
35127;DHT22;21300;52.006;5.798;2024-01-25T13:03:33;8.40;99.90
35127;DHT22;21300;52.006;5.798;2024-01-25T13:06:00;8.40;99.90
35127;DHT22;21300;52.006;5.798;2024-01-25T13:08:28;8.40;99.90
35127;DHT22;21300;52.006;5.798;2024-01-25T13:10:54;8.40;99.90
35127;DHT22;21300;52.006;5.798;2024-01-25T13:13:19;8.40;99.90
35127;DHT22;21300;52.006;5.798;2024-01-25T13:15:46;8.40;99.90
35127;DHT22;21300;52.006;5.798;2024-01-25T13:18:11;8.40;99.90
35127;DHT22;21300;52.006;5.798;2024-01-25T13:20:37;8.40;99.90
35127;DHT22;21300;52.006;5.798;2024-01-25T13:23:02;8.30;99.90
35127;DHT22;21300;52.006;5.798;2024-01-25T13:25:28;8.20;99.90
35127;DHT22;21300;52.006;5.798;2024-01-25T13:27:54;8.20;99.90
35127;DHT22;21300;52.006;5.798;2024-01-25T13:30:19;8.20;99.90
35127;DHT22;21300;52.006;5.798;2024-01-25T13:32:45;8.30;99.90
35127;DHT22;21300;52.006;5.798;2024-01-25T13:35:10;8.20;99.90
35127;DHT22;21300;52.006;5.798;2024-01-25T13:37:36;8.10;99.90
35127;DHT22;21300;52.006;5.798;2024-01-25T13:40:04;8.10;99.90
35127;DHT22;21300;52.006;5.798;2024-01-25T13:42:30;8.20;99.90
35127;DHT22;21300;52.006;5.798;2024-01-25T13:44:56;8.10;99.90
35127;DHT22;21300;52.006;5.798;2024-01-25T13:47:22;8.10;99.90
35127;DHT22;21300;52.006;5.798;2024-01-25T13:49:48;8.00;99.90
35127;DHT22;21300;52.006;5.798;2024-01-25T13:52:18;8.10;99.90
35127;DHT22;21300;52.006;5.798;2024-01-25T13:54:45;8.10;99.90
35127;DHT22;21300;52.006;5.798;2024-01-25T13:57:11;8.10;99.90
35127;DHT22;21300;52.006;5.798;2024-01-25T13:59:36;8.00;99.90
35127;DHT22;21300;52.006;5.798;2024-01-25T14:02:02;7.90;99.90
35127;DHT22;21300;52.006;5.798;2024-01-25T14:04:28;7.90;99.90
35127;DHT22;21300;52.006;5.798;2024-01-25T14:06:54;7.80;99.90
35127;DHT22;21300;52.006;5.798;2024-01-25T14:09:19;7.80;99.90
35127;DHT22;21300;52.006;5.798;2024-01-25T14:11:45;7.80;99.90
35127;DHT22;21300;52.006;5.798;2024-01-25T14:14:11;7.80;99.90
35127;DHT22;21300;52.006;5.798;2024-01-25T14:16:36;7.80;99.90
35127;DHT22;21300;52.006;5.798;2024-01-25T14:19:02;7.80;99.90
35127;DHT22;21300;52.006;5.798;2024-01-25T14:21:47;7.80;99.90
35127;DHT22;21300;52.006;5.798;2024-01-25T14:24:14;7.80;99.90
35127;DHT22;21300;52.006;5.798;2024-01-25T14:26:40;7.70;99.90
35127;DHT22;21300;52.006;5.798;2024-01-25T14:29:05;7.70;99.90
35127;DHT22;21300;52.006;5.798;2024-01-25T14:31:31;7.80;99.90
35127;DHT22;21300;52.006;5.798;2024-01-25T14:33:56;7.80;99.90
35127;DHT22;21300;52.006;5.798;2024-01-25T14:36:22;7.80;99.90
35127;DHT22;21300;52.006;5.798;2024-01-25T14:38:48;7.80;99.90
35127;DHT22;21300;52.006;5.798;2024-01-25T14:41:13;7.70;99.90
35127;DHT22;21300;52.006;5.798;2024-01-25T14:43:39;7.70;99.90
35127;DHT22;21300;52.006;5.798;2024-01-25T14:46:06;7.70;99.90
35127;DHT22;21300;52.006;5.798;2024-01-25T14:48:31;7.60;99.90
35127;DHT22;21300;52.006;5.798;2024-01-25T14:50:57;7.60;99.90
35127;DHT22;21300;52.006;5.798;2024-01-25T14:53:22;7.50;99.90
35127;DHT22;21300;52.006;5.798;2024-01-25T14:55:48;7.60;99.90
35127;DHT22;21300;52.006;5.798;2024-01-25T14:58:14;7.50;99.90
35127;DHT22;21300;52.006;5.798;2024-01-25T15:00:40;7.50;99.90
35127;DHT22;21300;52.006;5.798;2024-01-25T15:03:06;7.50;99.90
35127;DHT22;21300;52.006;5.798;2024-01-25T15:05:32;7.50;99.90
35127;DHT22;21300;52.006;5.798;2024-01-25T15:07:58;7.50;99.90
35127;DHT22;21300;52.006;5.798;2024-01-25T15:10:24;7.40;99.90
35127;DHT22;21300;52.006;5.798;2024-01-25T15:12:50;7.40;99.90
35127;DHT22;21300;52.006;5.798;2024-01-25T15:15:19;7.40;99.90
35127;DHT22;21300;52.006;5.798;2024-01-25T15:17:44;7.40;99.90
35127;DHT22;21300;52.006;5.798;2024-01-25T15:20:10;7.30;99.90
35127;DHT22;21300;52.006;5.798;2024-01-25T15:22:36;7.30;99.90
35127;DHT22;21300;52.006;5.798;2024-01-25T15:25:03;7.30;99.90
35127;DHT22;21300;52.006;5.798;2024-01-25T15:27:29;7.30;99.90
35127;DHT22;21300;52.006;5.798;2024-01-25T15:29:55;7.20;99.90
35127;DHT22;21300;52.006;5.798;2024-01-25T15:32:26;7.30;99.90
35127;DHT22;21300;52.006;5.798;2024-01-25T15:34:52;7.20;99.90
35127;DHT22;21300;52.006;5.798;2024-01-25T15:37:17;7.20;99.90
35127;DHT22;21300;52.006;5.798;2024-01-25T15:39:43;7.20;99.90
35127;DHT22;21300;52.006;5.798;2024-01-25T15:42:10;7.20;99.90
35127;DHT22;21300;52.006;5.798;2024-01-25T15:44:36;7.10;99.90